sensor_id;sensor_type;location;lat;lon;timestamp;P1;durP1;ratioP1;P2;durP2;ratioP2
80123;SDS011;69433;48.642;9.142;2023-08-31T00:00:48;3.03;;;2.40;;
80123;SDS011;69433;48.642;9.142;2023-08-31T00:03:14;3.15;;;2.50;;
80123;SDS011;69433;48.642;9.142;2023-08-31T00:05:43;3.25;;;2.30;;
80123;SDS011;69433;48.642;9.142;2023-08-31T00:08:09;3.30;;;2.33;;
80123;SDS011;69433;48.642;9.142;2023-08-31T00:10:36;3.45;;;2.17;;
80123;SDS011;69433;48.642;9.142;2023-08-31T00:13:02;3.13;;;2.03;;
80123;SDS011;69433;48.642;9.142;2023-08-31T00:15:28;3.15;;;2.40;;
80123;SDS011;69433;48.642;9.142;2023-08-31T00:17:54;2.90;;;2.20;;
80123;SDS011;69433;48.642;9.142;2023-08-31T00:20:20;3.20;;;2.20;;
80123;SDS011;69433;48.642;9.142;2023-08-31T00:22:46;4.50;;;2.35;;
80123;SDS011;69433;48.642;9.142;2023-08-31T00:25:12;3.88;;;2.25;;
80123;SDS011;69433;48.642;9.142;2023-08-31T00:27:37;3.10;;;2.00;;
80123;SDS011;69433;48.642;9.142;2023-08-31T00:30:04;3.15;;;2.20;;
80123;SDS011;69433;48.642;9.142;2023-08-31T00:32:32;2.80;;;2.17;;
80123;SDS011;69433;48.642;9.142;2023-08-31T00:34:59;2.97;;;2.20;;
80123;SDS011;69433;48.642;9.142;2023-08-31T00:37:24;3.67;;;2.30;;
80123;SDS011;69433;48.642;9.142;2023-08-31T00:39:49;3.55;;;2.50;;
80123;SDS011;69433;48.642;9.142;2023-08-31T00:42:17;3.33;;;2.55;;
80123;SDS011;69433;48.642;9.142;2023-08-31T00:44:43;3.00;;;2.35;;
80123;SDS011;69433;48.642;9.142;2023-08-31T00:47:08;2.83;;;2.15;;
80123;SDS011;69433;48.642;9.142;2023-08-31T00:49:34;2.92;;;2.20;;
80123;SDS011;69433;48.642;9.142;2023-08-31T00:52:00;2.78;;;2.10;;
80123;SDS011;69433;48.642;9.142;2023-08-31T00:54:25;2.78;;;2.20;;
80123;SDS011;69433;48.642;9.142;2023-08-31T00:56:55;2.80;;;2.13;;
80123;SDS011;69433;48.642;9.142;2023-08-31T00:59:21;4.00;;;2.20;;
80123;SDS011;69433;48.642;9.142;2023-08-31T01:01:49;2.65;;;2.17;;
80123;SDS011;69433;48.642;9.142;2023-08-31T01:04:23;3.92;;;2.50;;
80123;SDS011;69433;48.642;9.142;2023-08-31T01:10:17;2.90;;;2.03;;
80123;SDS011;69433;48.642;9.142;2023-08-31T01:12:50;3.40;;;2.17;;
80123;SDS011;69433;48.642;9.142;2023-08-31T01:15:20;2.67;;;1.90;;
80123;SDS011;69433;48.642;9.142;2023-08-31T01:17:50;2.78;;;2.15;;
80123;SDS011;69433;48.642;9.142;2023-08-31T01:20:46;2.85;;;1.80;;
80123;SDS011;69433;48.642;9.142;2023-08-31T01:23:13;3.00;;;2.03;;
80123;SDS011;69433;48.642;9.142;2023-08-31T01:25:43;3.28;;;2.10;;
80123;SDS011;69433;48.642;9.142;2023-08-31T01:28:10;3.38;;;2.38;;
80123;SDS011;69433;48.642;9.142;2023-08-31T01:30:36;3.75;;;2.25;;
80123;SDS011;69433;48.642;9.142;2023-08-31T01:33:01;3.03;;;2.20;;
80123;SDS011;69433;48.642;9.142;2023-08-31T01:35:27;2.78;;;2.15;;
80123;SDS011;69433;48.642;9.142;2023-08-31T01:38:00;4.47;;;2.00;;
80123;SDS011;69433;48.642;9.142;2023-08-31T01:40:31;3.40;;;2.20;;
80123;SDS011;69433;48.642;9.142;2023-08-31T01:43:15;2.95;;;2.10;;
80123;SDS011;69433;48.642;9.142;2023-08-31T01:45:42;3.50;;;2.00;;
80123;SDS011;69433;48.642;9.142;2023-08-31T01:48:10;3.13;;;2.13;;
80123;SDS011;69433;48.642;9.142;2023-08-31T01:50:36;2.80;;;2.10;;
80123;SDS011;69433;48.642;9.142;2023-08-31T01:53:01;2.78;;;1.90;;
80123;SDS011;69433;48.642;9.142;2023-08-31T01:55:26;3.03;;;1.80;;
80123;SDS011;69433;48.642;9.142;2023-08-31T01:57:52;3.35;;;1.90;;
80123;SDS011;69433;48.642;9.142;2023-08-31T02:00:18;2.72;;;1.90;;
80123;SDS011;69433;48.642;9.142;2023-08-31T02:02:44;2.80;;;1.90;;
80123;SDS011;69433;48.642;9.142;2023-08-31T02:05:09;3.25;;;1.95;;
80123;SDS011;69433;48.642;9.142;2023-08-31T02:07:35;2.70;;;2.00;;
80123;SDS011;69433;48.642;9.142;2023-08-31T02:10:00;3.30;;;2.00;;
80123;SDS011;69433;48.642;9.142;2023-08-31T02:12:25;2.42;;;1.90;;
80123;SDS011;69433;48.642;9.142;2023-08-31T02:14:51;2.70;;;1.92;;
80123;SDS011;69433;48.642;9.142;2023-08-31T02:17:16;2.83;;;2.20;;
80123;SDS011;69433;48.642;9.142;2023-08-31T02:19:41;3.08;;;2.00;;
80123;SDS011;69433;48.642;9.142;2023-08-31T02:22:07;3.13;;;2.00;;
80123;SDS011;69433;48.642;9.142;2023-08-31T02:24:32;2.80;;;1.95;;
80123;SDS011;69433;48.642;9.142;2023-08-31T02:26:57;2.85;;;1.77;;
80123;SDS011;69433;48.642;9.142;2023-08-31T02:29:23;3.45;;;1.88;;
80123;SDS011;69433;48.642;9.142;2023-08-31T02:31:48;2.45;;;1.75;;
80123;SDS011;69433;48.642;9.142;2023-08-31T02:34:13;2.42;;;1.70;;
80123;SDS011;69433;48.642;9.142;2023-08-31T02:36:39;2.60;;;1.80;;
80123;SDS011;69433;48.642;9.142;2023-08-31T02:39:12;2.80;;;1.83;;
80123;SDS011;69433;48.642;9.142;2023-08-31T02:41:38;2.15;;;1.80;;
80123;SDS011;69433;48.642;9.142;2023-08-31T02:44:03;3.20;;;2.03;;
80123;SDS011;69433;48.642;9.142;2023-08-31T02:46:29;2.88;;;1.85;;
80123;SDS011;69433;48.642;9.142;2023-08-31T02:48:54;3.28;;;2.45;;
80123;SDS011;69433;48.642;9.142;2023-08-31T02:51:19;2.85;;;1.92;;
80123;SDS011;69433;48.642;9.142;2023-08-31T02:53:45;2.60;;;1.77;;
80123;SDS011;69433;48.642;9.142;2023-08-31T02:56:10;2.97;;;1.88;;
80123;SDS011;69433;48.642;9.142;2023-08-31T02:58:39;2.20;;;1.70;;
80123;SDS011;69433;48.642;9.142;2023-08-31T03:01:12;3.05;;;2.03;;
80123;SDS011;69433;48.642;9.142;2023-08-31T03:03:38;2.55;;;1.80;;
80123;SDS011;69433;48.642;9.142;2023-08-31T03:06:07;6.53;;;1.65;;
80123;SDS011;69433;48.642;9.142;2023-08-31T03:08:34;2.75;;;1.67;;
80123;SDS011;69433;48.642;9.142;2023-08-31T03:11:01;2.72;;;1.90;;
80123;SDS011;69433;48.642;9.142;2023-08-31T03:13:33;3.25;;;1.90;;
80123;SDS011;69433;48.642;9.142;2023-08-31T03:15:59;2.30;;;1.70;;
80123;SDS011;69433;48.642;9.142;2023-08-31T03:18:26;3.05;;;1.77;;
80123;SDS011;69433;48.642;9.142;2023-08-31T03:20:52;3.13;;;1.70;;
80123;SDS011;69433;48.642;9.142;2023-08-31T03:23:18;4.72;;;1.73;;
80123;SDS011;69433;48.642;9.142;2023-08-31T03:25:43;3.08;;;1.80;;
80123;SDS011;69433;48.642;9.142;2023-08-31T03:28:09;2.33;;;1.67;;
80123;SDS011;69433;48.642;9.142;2023-08-31T03:30:35;4.57;;;1.60;;
80123;SDS011;69433;48.642;9.142;2023-08-31T03:33:00;2.72;;;1.63;;
80123;SDS011;69433;48.642;9.142;2023-08-31T03:35:25;4.15;;;1.88;;
80123;SDS011;69433;48.642;9.142;2023-08-31T03:37:54;2.25;;;1.50;;
80123;SDS011;69433;48.642;9.142;2023-08-31T03:40:20;2.50;;;1.73;;
80123;SDS011;69433;48.642;9.142;2023-08-31T03:42:59;2.33;;;1.70;;
80123;SDS011;69433;48.642;9.142;2023-08-31T03:45:25;2.30;;;1.75;;
80123;SDS011;69433;48.642;9.142;2023-08-31T03:47:53;2.42;;;1.92;;
80123;SDS011;69433;48.642;9.142;2023-08-31T03:50:19;3.92;;;1.65;;
80123;SDS011;69433;48.642;9.142;2023-08-31T03:52:44;2.85;;;1.70;;
80123;SDS011;69433;48.642;9.142;2023-08-31T03:55:10;4.63;;;1.98;;
80123;SDS011;69433;48.642;9.142;2023-08-31T03:57:35;5.72;;;2.10;;
80123;SDS011;69433;48.642;9.142;2023-08-31T04:00:00;2.47;;;1.85;;
80123;SDS011;69433;48.642;9.142;2023-08-31T04:02:26;4.22;;;1.67;;
80123;SDS011;69433;48.642;9.142;2023-08-31T04:04:51;2.85;;;1.58;;
80123;SDS011;69433;48.642;9.142;2023-08-31T04:07:16;2.88;;;1.80;;
80123;SDS011;69433;48.642;9.142;2023-08-31T04:09:46;2.20;;;1.48;;
80123;SDS011;69433;48.642;9.142;2023-08-31T04:12:11;3.63;;;1.75;;
80123;SDS011;69433;48.642;9.142;2023-08-31T04:14:36;3.85;;;1.85;;
80123;SDS011;69433;48.642;9.142;2023-08-31T04:17:15;2.25;;;1.60;;
80123;SDS011;69433;48.642;9.142;2023-08-31T04:19:40;3.78;;;1.60;;
80123;SDS011;69433;48.642;9.142;2023-08-31T04:22:06;6.55;;;1.80;;
80123;SDS011;69433;48.642;9.142;2023-08-31T04:24:31;6.90;;;1.98;;
80123;SDS011;69433;48.642;9.142;2023-08-31T04:26:56;8.70;;;1.90;;
80123;SDS011;69433;48.642;9.142;2023-08-31T04:29:21;5.63;;;1.80;;
80123;SDS011;69433;48.642;9.142;2023-08-31T04:31:47;5.60;;;1.85;;
80123;SDS011;69433;48.642;9.142;2023-08-31T04:34:12;3.45;;;1.67;;
80123;SDS011;69433;48.642;9.142;2023-08-31T04:36:38;3.38;;;1.80;;
80123;SDS011;69433;48.642;9.142;2023-08-31T04:39:03;4.68;;;1.75;;
80123;SDS011;69433;48.642;9.142;2023-08-31T04:41:29;3.92;;;2.05;;
80123;SDS011;69433;48.642;9.142;2023-08-31T04:43:55;3.78;;;1.80;;
80123;SDS011;69433;48.642;9.142;2023-08-31T04:46:20;3.50;;;1.85;;
80123;SDS011;69433;48.642;9.142;2023-08-31T04:48:45;3.15;;;1.88;;
80123;SDS011;69433;48.642;9.142;2023-08-31T04:53:59;3.38;;;1.83;;
80123;SDS011;69433;48.642;9.142;2023-08-31T04:56:26;4.03;;;1.70;;
80123;SDS011;69433;48.642;9.142;2023-08-31T04:58:55;2.65;;;1.75;;
80123;SDS011;69433;48.642;9.142;2023-08-31T05:01:20;3.10;;;1.67;;
80123;SDS011;69433;48.642;9.142;2023-08-31T05:03:45;3.55;;;1.80;;
80123;SDS011;69433;48.642;9.142;2023-08-31T05:06:11;4.75;;;1.90;;
80123;SDS011;69433;48.642;9.142;2023-08-31T05:08:36;3.35;;;1.60;;
80123;SDS011;69433;48.642;9.142;2023-08-31T05:11:01;4.28;;;1.80;;
80123;SDS011;69433;48.642;9.142;2023-08-31T05:13:27;4.22;;;1.80;;
80123;SDS011;69433;48.642;9.142;2023-08-31T05:15:53;2.83;;;1.60;;
80123;SDS011;69433;48.642;9.142;2023-08-31T05:18:18;6.57;;;1.88;;
80123;SDS011;69433;48.642;9.142;2023-08-31T05:20:46;3.45;;;1.85;;
80123;SDS011;69433;48.642;9.142;2023-08-31T05:23:13;3.40;;;1.80;;
80123;SDS011;69433;48.642;9.142;2023-08-31T05:25:42;2.75;;;1.60;;
80123;SDS011;69433;48.642;9.142;2023-08-31T05:28:10;2.55;;;1.60;;
80123;SDS011;69433;48.642;9.142;2023-08-31T05:30:36;2.67;;;1.70;;
80123;SDS011;69433;48.642;9.142;2023-08-31T05:33:01;3.17;;;2.10;;
80123;SDS011;69433;48.642;9.142;2023-08-31T05:35:27;3.63;;;2.40;;
80123;SDS011;69433;48.642;9.142;2023-08-31T05:37:53;3.75;;;1.75;;
80123;SDS011;69433;48.642;9.142;2023-08-31T05:40:18;3.53;;;1.65;;
80123;SDS011;69433;48.642;9.142;2023-08-31T05:42:44;2.70;;;1.75;;
80123;SDS011;69433;48.642;9.142;2023-08-31T05:45:09;3.55;;;1.80;;
80123;SDS011;69433;48.642;9.142;2023-08-31T05:47:35;3.05;;;2.00;;
80123;SDS011;69433;48.642;9.142;2023-08-31T05:50:00;3.33;;;1.92;;
80123;SDS011;69433;48.642;9.142;2023-08-31T05:52:26;2.90;;;1.60;;
80123;SDS011;69433;48.642;9.142;2023-08-31T05:54:52;4.00;;;1.52;;
80123;SDS011;69433;48.642;9.142;2023-08-31T05:57:18;2.33;;;1.70;;
80123;SDS011;69433;48.642;9.142;2023-08-31T05:59:44;3.67;;;1.65;;
80123;SDS011;69433;48.642;9.142;2023-08-31T06:02:09;3.40;;;1.80;;
80123;SDS011;69433;48.642;9.142;2023-08-31T06:04:35;3.58;;;1.60;;
80123;SDS011;69433;48.642;9.142;2023-08-31T06:07:01;2.25;;;1.70;;
80123;SDS011;69433;48.642;9.142;2023-08-31T06:09:26;2.90;;;1.70;;
80123;SDS011;69433;48.642;9.142;2023-08-31T06:11:52;2.75;;;1.77;;
80123;SDS011;69433;48.642;9.142;2023-08-31T06:14:17;3.28;;;1.60;;
80123;SDS011;69433;48.642;9.142;2023-08-31T06:16:42;2.83;;;1.55;;
80123;SDS011;69433;48.642;9.142;2023-08-31T06:19:08;2.55;;;1.60;;
80123;SDS011;69433;48.642;9.142;2023-08-31T06:21:34;2.88;;;1.77;;
80123;SDS011;69433;48.642;9.142;2023-08-31T06:24:00;2.55;;;1.58;;
80123;SDS011;69433;48.642;9.142;2023-08-31T06:26:25;2.50;;;1.70;;
80123;SDS011;69433;48.642;9.142;2023-08-31T06:28:51;3.17;;;1.73;;
80123;SDS011;69433;48.642;9.142;2023-08-31T06:31:16;2.65;;;1.65;;
80123;SDS011;69433;48.642;9.142;2023-08-31T06:33:41;3.22;;;1.58;;
80123;SDS011;69433;48.642;9.142;2023-08-31T06:36:06;4.47;;;1.80;;
80123;SDS011;69433;48.642;9.142;2023-08-31T06:38:32;3.67;;;1.80;;
80123;SDS011;69433;48.642;9.142;2023-08-31T06:40:57;4.00;;;1.95;;
80123;SDS011;69433;48.642;9.142;2023-08-31T06:43:24;3.47;;;1.88;;
80123;SDS011;69433;48.642;9.142;2023-08-31T06:45:51;2.60;;;1.63;;
80123;SDS011;69433;48.642;9.142;2023-08-31T06:48:17;2.47;;;1.40;;
80123;SDS011;69433;48.642;9.142;2023-08-31T06:50:43;2.10;;;1.42;;
80123;SDS011;69433;48.642;9.142;2023-08-31T06:53:08;2.50;;;1.65;;
80123;SDS011;69433;48.642;9.142;2023-08-31T06:55:33;2.90;;;1.70;;
80123;SDS011;69433;48.642;9.142;2023-08-31T06:57:59;7.32;;;1.90;;
80123;SDS011;69433;48.642;9.142;2023-08-31T07:00:25;2.92;;;1.60;;
80123;SDS011;69433;48.642;9.142;2023-08-31T07:02:51;3.17;;;1.70;;
80123;SDS011;69433;48.642;9.142;2023-08-31T07:05:16;2.30;;;1.50;;
80123;SDS011;69433;48.642;9.142;2023-08-31T07:07:41;7.95;;;2.10;;
80123;SDS011;69433;48.642;9.142;2023-08-31T07:10:07;2.10;;;1.55;;
80123;SDS011;69433;48.642;9.142;2023-08-31T07:12:32;2.20;;;1.40;;
80123;SDS011;69433;48.642;9.142;2023-08-31T07:14:58;2.83;;;1.60;;
80123;SDS011;69433;48.642;9.142;2023-08-31T07:17:24;3.67;;;1.65;;
80123;SDS011;69433;48.642;9.142;2023-08-31T07:19:49;5.85;;;1.90;;
80123;SDS011;69433;48.642;9.142;2023-08-31T07:22:15;7.07;;;1.75;;
80123;SDS011;69433;48.642;9.142;2023-08-31T07:24:40;2.80;;;1.70;;
80123;SDS011;69433;48.642;9.142;2023-08-31T07:27:05;4.53;;;1.60;;
80123;SDS011;69433;48.642;9.142;2023-08-31T07:29:31;5.40;;;1.70;;
80123;SDS011;69433;48.642;9.142;2023-08-31T07:31:56;3.03;;;1.80;;
80123;SDS011;69433;48.642;9.142;2023-08-31T07:34:22;3.40;;;1.60;;
80123;SDS011;69433;48.642;9.142;2023-08-31T07:36:48;2.83;;;1.50;;
80123;SDS011;69433;48.642;9.142;2023-08-31T07:39:13;4.18;;;1.77;;
80123;SDS011;69433;48.642;9.142;2023-08-31T07:41:38;6.93;;;1.73;;
80123;SDS011;69433;48.642;9.142;2023-08-31T07:44:05;7.22;;;1.70;;
80123;SDS011;69433;48.642;9.142;2023-08-31T07:46:30;6.03;;;1.90;;
80123;SDS011;69433;48.642;9.142;2023-08-31T07:48:56;3.80;;;1.50;;
80123;SDS011;69433;48.642;9.142;2023-08-31T07:51:23;3.60;;;1.60;;
80123;SDS011;69433;48.642;9.142;2023-08-31T07:53:50;2.75;;;1.50;;
80123;SDS011;69433;48.642;9.142;2023-08-31T07:56:16;3.97;;;1.60;;
80123;SDS011;69433;48.642;9.142;2023-08-31T07:58:41;4.45;;;1.73;;
80123;SDS011;69433;48.642;9.142;2023-08-31T08:01:07;2.55;;;1.45;;
80123;SDS011;69433;48.642;9.142;2023-08-31T08:03:32;2.92;;;1.73;;
80123;SDS011;69433;48.642;9.142;2023-08-31T08:05:57;3.17;;;1.60;;
80123;SDS011;69433;48.642;9.142;2023-08-31T08:08:23;4.88;;;1.58;;
80123;SDS011;69433;48.642;9.142;2023-08-31T08:10:51;5.43;;;1.75;;
80123;SDS011;69433;48.642;9.142;2023-08-31T08:13:19;3.80;;;1.80;;
80123;SDS011;69433;48.642;9.142;2023-08-31T08:15:45;3.78;;;1.70;;
80123;SDS011;69433;48.642;9.142;2023-08-31T08:18:11;4.68;;;1.77;;
80123;SDS011;69433;48.642;9.142;2023-08-31T08:20:36;3.83;;;1.67;;
80123;SDS011;69433;48.642;9.142;2023-08-31T08:23:01;4.22;;;1.70;;
80123;SDS011;69433;48.642;9.142;2023-08-31T08:25:26;2.92;;;1.63;;
80123;SDS011;69433;48.642;9.142;2023-08-31T08:27:52;2.65;;;1.55;;
80123;SDS011;69433;48.642;9.142;2023-08-31T08:30:17;2.70;;;1.60;;
80123;SDS011;69433;48.642;9.142;2023-08-31T08:32:43;3.15;;;1.75;;
80123;SDS011;69433;48.642;9.142;2023-08-31T08:35:11;4.68;;;2.03;;
80123;SDS011;69433;48.642;9.142;2023-08-31T08:37:36;3.67;;;1.83;;
80123;SDS011;69433;48.642;9.142;2023-08-31T08:40:01;3.00;;;1.88;;
80123;SDS011;69433;48.642;9.142;2023-08-31T08:42:29;5.25;;;1.80;;
80123;SDS011;69433;48.642;9.142;2023-08-31T08:44:56;4.43;;;1.55;;
80123;SDS011;69433;48.642;9.142;2023-08-31T08:47:21;2.47;;;1.50;;
80123;SDS011;69433;48.642;9.142;2023-08-31T08:49:47;3.65;;;1.63;;
80123;SDS011;69433;48.642;9.142;2023-08-31T08:52:13;3.50;;;1.60;;
80123;SDS011;69433;48.642;9.142;2023-08-31T08:54:42;3.63;;;1.90;;
80123;SDS011;69433;48.642;9.142;2023-08-31T08:57:07;2.08;;;1.60;;
80123;SDS011;69433;48.642;9.142;2023-08-31T08:59:32;6.55;;;2.20;;
80123;SDS011;69433;48.642;9.142;2023-08-31T09:01:58;2.42;;;1.77;;
80123;SDS011;69433;48.642;9.142;2023-08-31T09:04:23;3.92;;;2.05;;
80123;SDS011;69433;48.642;9.142;2023-08-31T09:06:52;3.15;;;1.70;;
80123;SDS011;69433;48.642;9.142;2023-08-31T09:09:17;2.67;;;1.52;;
80123;SDS011;69433;48.642;9.142;2023-08-31T09:11:44;3.35;;;1.60;;
80123;SDS011;69433;48.642;9.142;2023-08-31T09:14:14;2.88;;;1.85;;
80123;SDS011;69433;48.642;9.142;2023-08-31T09:16:47;4.50;;;1.77;;
80123;SDS011;69433;48.642;9.142;2023-08-31T09:19:20;4.00;;;1.77;;
80123;SDS011;69433;48.642;9.142;2023-08-31T09:21:47;3.67;;;1.83;;
80123;SDS011;69433;48.642;9.142;2023-08-31T09:24:13;3.65;;;1.75;;
80123;SDS011;69433;48.642;9.142;2023-08-31T09:26:45;4.43;;;1.73;;
80123;SDS011;69433;48.642;9.142;2023-08-31T09:29:12;6.32;;;1.90;;
80123;SDS011;69433;48.642;9.142;2023-08-31T09:31:40;2.60;;;1.70;;
80123;SDS011;69433;48.642;9.142;2023-08-31T09:34:11;3.83;;;1.75;;
80123;SDS011;69433;48.642;9.142;2023-08-31T09:36:37;4.57;;;1.85;;
80123;SDS011;69433;48.642;9.142;2023-08-31T09:39:03;2.67;;;1.80;;
80123;SDS011;69433;48.642;9.142;2023-08-31T09:41:29;4.45;;;2.03;;
80123;SDS011;69433;48.642;9.142;2023-08-31T09:43:55;3.40;;;2.08;;
80123;SDS011;69433;48.642;9.142;2023-08-31T09:46:25;6.28;;;2.10;;
80123;SDS011;69433;48.642;9.142;2023-08-31T09:48:50;4.35;;;2.30;;
80123;SDS011;69433;48.642;9.142;2023-08-31T09:51:18;5.68;;;2.10;;
80123;SDS011;69433;48.642;9.142;2023-08-31T09:53:48;4.03;;;2.28;;
80123;SDS011;69433;48.642;9.142;2023-08-31T09:56:16;5.15;;;2.20;;
80123;SDS011;69433;48.642;9.142;2023-08-31T09:58:45;5.00;;;2.10;;
80123;SDS011;69433;48.642;9.142;2023-08-31T10:01:11;5.13;;;2.25;;
80123;SDS011;69433;48.642;9.142;2023-08-31T10:03:37;4.20;;;2.40;;
80123;SDS011;69433;48.642;9.142;2023-08-31T10:06:03;3.20;;;1.92;;
80123;SDS011;69433;48.642;9.142;2023-08-31T10:08:29;4.57;;;2.28;;
80123;SDS011;69433;48.642;9.142;2023-08-31T10:10:57;10.48;;;2.35;;
80123;SDS011;69433;48.642;9.142;2023-08-31T10:13:24;3.97;;;2.25;;
80123;SDS011;69433;48.642;9.142;2023-08-31T10:15:51;5.15;;;2.53;;
80123;SDS011;69433;48.642;9.142;2023-08-31T10:18:17;5.32;;;2.08;;
80123;SDS011;69433;48.642;9.142;2023-08-31T10:20:43;4.32;;;2.05;;
80123;SDS011;69433;48.642;9.142;2023-08-31T10:23:09;4.20;;;2.35;;
80123;SDS011;69433;48.642;9.142;2023-08-31T10:28:18;5.43;;;2.30;;
80123;SDS011;69433;48.642;9.142;2023-08-31T10:31:09;6.35;;;2.63;;
80123;SDS011;69433;48.642;9.142;2023-08-31T10:33:45;4.47;;;2.28;;
80123;SDS011;69433;48.642;9.142;2023-08-31T10:38:42;4.53;;;2.22;;
80123;SDS011;69433;48.642;9.142;2023-08-31T10:43:55;3.20;;;1.95;;
80123;SDS011;69433;48.642;9.142;2023-08-31T10:46:42;5.43;;;2.30;;
80123;SDS011;69433;48.642;9.142;2023-08-31T10:49:14;5.65;;;2.50;;
80123;SDS011;69433;48.642;9.142;2023-08-31T10:51:58;4.82;;;2.75;;
80123;SDS011;69433;48.642;9.142;2023-08-31T10:54:41;5.20;;;2.13;;
80123;SDS011;69433;48.642;9.142;2023-08-31T10:57:07;5.07;;;2.22;;
80123;SDS011;69433;48.642;9.142;2023-08-31T10:59:48;3.30;;;2.47;;
80123;SDS011;69433;48.642;9.142;2023-08-31T11:07:47;6.40;;;2.33;;
80123;SDS011;69433;48.642;9.142;2023-08-31T11:10:20;4.70;;;2.17;;
80123;SDS011;69433;48.642;9.142;2023-08-31T11:12:48;3.75;;;2.13;;
80123;SDS011;69433;48.642;9.142;2023-08-31T11:15:18;4.05;;;2.17;;
80123;SDS011;69433;48.642;9.142;2023-08-31T11:17:45;3.95;;;2.13;;
80123;SDS011;69433;48.642;9.142;2023-08-31T11:20:15;4.70;;;2.47;;
80123;SDS011;69433;48.642;9.142;2023-08-31T11:22:42;4.30;;;2.30;;
80123;SDS011;69433;48.642;9.142;2023-08-31T11:25:09;3.63;;;2.20;;
80123;SDS011;69433;48.642;9.142;2023-08-31T11:27:39;3.00;;;1.95;;
80123;SDS011;69433;48.642;9.142;2023-08-31T11:30:17;3.88;;;2.00;;
80123;SDS011;69433;48.642;9.142;2023-08-31T11:32:49;4.60;;;2.22;;
80123;SDS011;69433;48.642;9.142;2023-08-31T11:35:15;3.50;;;1.95;;
80123;SDS011;69433;48.642;9.142;2023-08-31T11:37:43;4.68;;;2.15;;
80123;SDS011;69433;48.642;9.142;2023-08-31T11:40:10;5.63;;;2.33;;
80123;SDS011;69433;48.642;9.142;2023-08-31T11:42:39;3.00;;;1.90;;
80123;SDS011;69433;48.642;9.142;2023-08-31T11:45:05;4.57;;;2.72;;
80123;SDS011;69433;48.642;9.142;2023-08-31T11:47:32;5.65;;;2.40;;
80123;SDS011;69433;48.642;9.142;2023-08-31T11:49:58;4.93;;;2.33;;
80123;SDS011;69433;48.642;9.142;2023-08-31T11:52:24;4.57;;;2.15;;
80123;SDS011;69433;48.642;9.142;2023-08-31T11:54:51;5.13;;;2.40;;
80123;SDS011;69433;48.642;9.142;2023-08-31T11:57:18;5.68;;;2.13;;
80123;SDS011;69433;48.642;9.142;2023-08-31T11:59:43;4.93;;;2.55;;
80123;SDS011;69433;48.642;9.142;2023-08-31T12:02:09;4.53;;;2.35;;
80123;SDS011;69433;48.642;9.142;2023-08-31T12:04:43;5.43;;;2.50;;
80123;SDS011;69433;48.642;9.142;2023-08-31T12:07:10;5.43;;;2.50;;
80123;SDS011;69433;48.642;9.142;2023-08-31T12:09:35;4.65;;;2.40;;
80123;SDS011;69433;48.642;9.142;2023-08-31T12:12:04;3.35;;;2.05;;
80123;SDS011;69433;48.642;9.142;2023-08-31T12:14:29;4.57;;;2.40;;
80123;SDS011;69433;48.642;9.142;2023-08-31T12:17:05;4.50;;;2.38;;
80123;SDS011;69433;48.642;9.142;2023-08-31T12:19:32;3.83;;;2.15;;
80123;SDS011;69433;48.642;9.142;2023-08-31T12:21:58;4.03;;;2.40;;
80123;SDS011;69433;48.642;9.142;2023-08-31T12:24:24;5.18;;;2.35;;
80123;SDS011;69433;48.642;9.142;2023-08-31T12:26:50;7.05;;;2.50;;
80123;SDS011;69433;48.642;9.142;2023-08-31T12:29:30;6.80;;;2.65;;
80123;SDS011;69433;48.642;9.142;2023-08-31T12:31:55;3.97;;;2.10;;
80123;SDS011;69433;48.642;9.142;2023-08-31T12:34:24;4.10;;;2.30;;
80123;SDS011;69433;48.642;9.142;2023-08-31T12:36:49;4.60;;;1.92;;
80123;SDS011;69433;48.642;9.142;2023-08-31T12:39:14;4.30;;;2.20;;
80123;SDS011;69433;48.642;9.142;2023-08-31T12:41:40;4.95;;;2.33;;
80123;SDS011;69433;48.642;9.142;2023-08-31T12:44:06;4.25;;;2.38;;
80123;SDS011;69433;48.642;9.142;2023-08-31T12:46:38;3.95;;;2.33;;
80123;SDS011;69433;48.642;9.142;2023-08-31T12:49:04;4.82;;;2.40;;
80123;SDS011;69433;48.642;9.142;2023-08-31T12:51:30;3.50;;;2.47;;
80123;SDS011;69433;48.642;9.142;2023-08-31T12:53:56;5.05;;;2.85;;
80123;SDS011;69433;48.642;9.142;2023-08-31T12:56:24;4.90;;;2.22;;
80123;SDS011;69433;48.642;9.142;2023-08-31T12:58:50;7.22;;;2.60;;
80123;SDS011;69433;48.642;9.142;2023-08-31T13:01:17;6.40;;;2.30;;
80123;SDS011;69433;48.642;9.142;2023-08-31T13:03:43;4.43;;;2.40;;
80123;SDS011;69433;48.642;9.142;2023-08-31T13:06:08;5.22;;;2.60;;
80123;SDS011;69433;48.642;9.142;2023-08-31T13:08:33;6.57;;;2.63;;
80123;SDS011;69433;48.642;9.142;2023-08-31T13:10:59;4.88;;;2.40;;
80123;SDS011;69433;48.642;9.142;2023-08-31T13:13:25;5.85;;;2.25;;
80123;SDS011;69433;48.642;9.142;2023-08-31T13:15:50;6.00;;;2.95;;
80123;SDS011;69433;48.642;9.142;2023-08-31T13:18:16;5.65;;;2.40;;
80123;SDS011;69433;48.642;9.142;2023-08-31T13:20:54;4.43;;;2.33;;
80123;SDS011;69433;48.642;9.142;2023-08-31T13:23:21;5.03;;;2.10;;
80123;SDS011;69433;48.642;9.142;2023-08-31T13:25:47;5.60;;;2.42;;
80123;SDS011;69433;48.642;9.142;2023-08-31T13:28:13;6.05;;;2.25;;
80123;SDS011;69433;48.642;9.142;2023-08-31T13:30:38;5.65;;;2.40;;
80123;SDS011;69433;48.642;9.142;2023-08-31T13:33:04;3.72;;;2.20;;
80123;SDS011;69433;48.642;9.142;2023-08-31T13:35:30;5.70;;;2.55;;
80123;SDS011;69433;48.642;9.142;2023-08-31T13:37:56;6.60;;;2.38;;
80123;SDS011;69433;48.642;9.142;2023-08-31T13:40:21;5.07;;;2.28;;
80123;SDS011;69433;48.642;9.142;2023-08-31T13:42:56;5.32;;;2.33;;
80123;SDS011;69433;48.642;9.142;2023-08-31T13:45:26;4.03;;;2.33;;
80123;SDS011;69433;48.642;9.142;2023-08-31T13:47:51;4.68;;;2.70;;
80123;SDS011;69433;48.642;9.142;2023-08-31T13:50:17;4.80;;;2.25;;
80123;SDS011;69433;48.642;9.142;2023-08-31T13:52:44;6.00;;;2.30;;
80123;SDS011;69433;48.642;9.142;2023-08-31T13:55:10;4.63;;;2.30;;
80123;SDS011;69433;48.642;9.142;2023-08-31T13:57:35;4.30;;;2.10;;
80123;SDS011;69433;48.642;9.142;2023-08-31T14:00:01;4.30;;;2.35;;
80123;SDS011;69433;48.642;9.142;2023-08-31T14:02:26;5.55;;;2.33;;
80123;SDS011;69433;48.642;9.142;2023-08-31T14:04:52;4.10;;;2.25;;
80123;SDS011;69433;48.642;9.142;2023-08-31T14:07:18;6.15;;;2.58;;
80123;SDS011;69433;48.642;9.142;2023-08-31T14:09:44;5.95;;;2.80;;
80123;SDS011;69433;48.642;9.142;2023-08-31T14:12:09;6.25;;;2.17;;
80123;SDS011;69433;48.642;9.142;2023-08-31T14:14:34;6.70;;;2.80;;
80123;SDS011;69433;48.642;9.142;2023-08-31T14:19:34;6.22;;;2.05;;
80123;SDS011;69433;48.642;9.142;2023-08-31T14:22:01;4.57;;;2.38;;
80123;SDS011;69433;48.642;9.142;2023-08-31T14:24:28;3.90;;;2.38;;
80123;SDS011;69433;48.642;9.142;2023-08-31T14:26:58;4.18;;;2.10;;
80123;SDS011;69433;48.642;9.142;2023-08-31T14:29:23;4.00;;;2.25;;
80123;SDS011;69433;48.642;9.142;2023-08-31T14:31:49;3.72;;;2.45;;
80123;SDS011;69433;48.642;9.142;2023-08-31T14:36:45;3.95;;;2.25;;
80123;SDS011;69433;48.642;9.142;2023-08-31T14:39:11;3.90;;;2.20;;
80123;SDS011;69433;48.642;9.142;2023-08-31T14:41:36;4.05;;;2.60;;
80123;SDS011;69433;48.642;9.142;2023-08-31T14:44:01;4.43;;;2.53;;
80123;SDS011;69433;48.642;9.142;2023-08-31T14:46:27;4.57;;;2.28;;
80123;SDS011;69433;48.642;9.142;2023-08-31T14:48:52;5.55;;;2.55;;
80123;SDS011;69433;48.642;9.142;2023-08-31T14:51:18;4.68;;;2.13;;
80123;SDS011;69433;48.642;9.142;2023-08-31T14:53:43;5.50;;;2.70;;
80123;SDS011;69433;48.642;9.142;2023-08-31T14:56:08;3.80;;;2.40;;
80123;SDS011;69433;48.642;9.142;2023-08-31T14:58:34;4.88;;;2.75;;
80123;SDS011;69433;48.642;9.142;2023-08-31T15:00:59;5.35;;;2.38;;
80123;SDS011;69433;48.642;9.142;2023-08-31T15:03:24;5.05;;;2.13;;
80123;SDS011;69433;48.642;9.142;2023-08-31T15:05:50;3.70;;;2.40;;
80123;SDS011;69433;48.642;9.142;2023-08-31T15:08:15;5.03;;;2.28;;
80123;SDS011;69433;48.642;9.142;2023-08-31T15:10:40;4.43;;;2.60;;